Time;durP1;ratioP1;P1;durP2;ratioP2;P2;SDS_P1;SDS_P2;PMS_P1;PMS_P2;Temp;Humidity;BMP_temperature;BMP_pressure;BME280_temperature;BME280_humidity;BME280_pressure;Samples;Min_cycle;Max_cycle;Signal;HPM_P1;HPM_P2
2023/02/05 00:01:36;;;;;;;10.00;3.03;;;-3.60;94.40;;;;;;4986315;28;20054;-76
2023/02/05 00:04:03;;;;;;;7.35;2.45;;;-3.60;94.70;;;;;;5003547;28;20057;-75
2023/02/05 00:06:30;;;;;;;12.05;3.70;;;-3.60;94.50;;;;;;4985254;28;20695;-76
2023/02/05 00:08:57;;;;;;;7.80;3.00;;;-3.60;94.60;;;;;;5001612;28;20065;-76
2023/02/05 00:11:25;;;;;;;6.95;3.28;;;-3.60;94.40;;;;;;4985529;28;20050;-76
2023/02/05 00:13:52;;;;;;;6.88;2.63;;;-3.60;94.50;;;;;;5005302;28;20367;-76
2023/02/05 00:16:21;;;;;;;8.63;2.95;;;-3.60;94.60;;;;;;4989995;28;20064;-76
2023/02/05 00:18:48;;;;;;;9.52;3.83;;;-3.60;94.70;;;;;;4984562;28;20050;-76
2023/02/05 00:21:16;;;;;;;7.40;2.72;;;-3.60;94.70;;;;;;4983012;28;20057;-76
2023/02/05 00:23:43;;;;;;;9.43;2.60;;;-3.50;94.60;;;;;;5006600;28;20160;-76
2023/02/05 00:26:12;;;;;;;6.28;2.70;;;-3.50;94.50;;;;;;4985553;28;20111;-76
2023/02/05 00:28:40;;;;;;;8.05;2.95;;;-3.50;94.70;;;;;;4984741;28;20525;-76
2023/02/05 00:31:09;;;;;;;7.90;2.25;;;-3.50;94.60;;;;;;4988750;28;20058;-76
2023/02/05 00:33:36;;;;;;;8.55;2.90;;;-3.50;94.50;;;;;;4991041;28;20050;-76
2023/02/05 00:36:04;;;;;;;9.75;2.55;;;-3.40;94.40;;;;;;5009766;28;20136;-76
2023/02/05 00:38:31;;;;;;;9.73;2.40;;;-3.40;94.50;;;;;;4995629;28;20050;-76
2023/02/05 00:40:58;;;;;;;3.40;1.60;;;-3.40;94.30;;;;;;4990285;28;20045;-76
2023/02/05 00:43:25;;;;;;;5.47;2.20;;;-3.40;94.20;;;;;;4991425;28;20137;-76
2023/02/05 00:45:52;;;;;;;5.40;2.20;;;-3.30;94.00;;;;;;4994431;28;20117;-76
2023/02/05 00:48:19;;;;;;;10.48;2.10;;;-3.40;93.90;;;;;;5009215;28;20111;-76
2023/02/05 00:50:48;;;;;;;5.70;2.25;;;-3.40;94.00;;;;;;4990498;28;20495;-76
2023/02/05 00:53:15;;;;;;;9.05;2.38;;;-3.40;93.70;;;;;;4991590;28;20587;-76
2023/02/05 00:55:42;;;;;;;5.63;2.60;;;-3.30;93.40;;;;;;4990884;28;20046;-76
2023/02/05 00:58:09;;;;;;;9.02;2.97;;;-3.30;93.70;;;;;;4990980;28;20482;-76
2023/02/05 01:00:37;;;;;;;6.28;2.47;;;-3.30;93.80;;;;;;4990406;28;20053;-76
2023/02/05 01:03:04;;;;;;;7.18;2.47;;;-3.30;94.00;;;;;;4991363;28;20057;-76
2023/02/05 01:05:32;;;;;;;4.45;2.00;;;-3.30;93.70;;;;;;4992405;28;20054;-76
2023/02/05 01:07:59;;;;;;;5.05;2.25;;;-3.30;93.20;;;;;;5009722;28;20136;-76
2023/02/05 01:10:26;;;;;;;5.65;1.95;;;-3.30;93.10;;;;;;4990118;28;20144;-76
2023/02/05 01:12:53;;;;;;;9.43;2.15;;;-3.20;93.10;;;;;;4993781;28;20057;-76
2023/02/05 01:15:20;;;;;;;5.90;1.60;;;-3.20;93.10;;;;;;4991682;28;20058;-76
2023/02/05 01:17:47;;;;;;;3.58;2.00;;;-3.20;93.40;;;;;;5011353;28;20491;-76
2023/02/05 01:20:14;;;;;;;10.45;2.00;;;-3.20;93.20;;;;;;5010481;28;20053;-75
2023/02/05 01:22:42;;;;;;;5.25;2.13;;;-3.20;93.10;;;;;;5009305;28;20073;-76
2023/02/05 01:25:09;;;;;;;3.97;1.95;;;-3.20;92.90;;;;;;4995029;28;20057;-76
2023/02/05 01:27:36;;;;;;;9.40;2.05;;;-3.20;92.70;;;;;;5009102;28;20448;-76
2023/02/05 01:30:05;;;;;;;6.47;2.15;;;-3.20;92.50;;;;;;5008363;28;20053;-76
2023/02/05 01:32:32;;;;;;;5.00;1.80;;;-3.20;92.70;;;;;;5015188;28;20054;-74
2023/02/05 01:34:59;;;;;;;7.15;2.20;;;-3.20;92.60;;;;;;4991020;28;20136;-76
2023/02/05 01:37:25;;;;;;;5.60;1.73;;;-3.20;93.30;;;;;;5008528;28;20049;-76
2023/02/05 01:39:52;;;;;;;4.30;1.90;;;-3.20;93.00;;;;;;5009117;28;20053;-76
2023/02/05 01:42:27;;;;;;;4.93;1.83;;;-3.20;92.80;;;;;;4992671;28;20380;-76
2023/02/05 01:45:13;;;;;;;;;;;-3.20;93.10;;;;;;4990115;28;20479;-76
2023/02/05 01:47:40;;;;;;;10.00;2.38;;;-3.20;93.30;;;;;;4984720;28;20394;-76
2023/02/05 01:50:06;;;;;;;5.05;1.98;;;-3.10;93.20;;;;;;5005047;28;20085;-76
2023/02/05 01:52:33;;;;;;;3.65;1.67;;;-3.10;92.50;;;;;;4987742;28;20046;-76
2023/02/05 01:55:01;;;;;;;7.40;1.85;;;-3.10;92.60;;;;;;4986872;28;20716;-76
2023/02/05 01:57:27;;;;;;;7.43;1.73;;;-3.10;91.90;;;;;;4985303;28;20375;-76
2023/02/05 01:59:54;;;;;;;3.28;1.35;;;-3.10;92.20;;;;;;4991619;28;20057;-76
2023/02/05 02:02:21;;;;;;;6.22;1.83;;;-3.10;92.00;;;;;;5008574;28;20104;-77
2023/02/05 02:05:01;;;;;;;7.10;1.75;;;-3.10;91.40;;;;;;5011146;28;20049;-78
2023/02/05 02:07:28;;;;;;;7.88;1.70;;;-3.10;91.50;;;;;;4989126;28;20130;-78
2023/02/05 02:09:55;;;;;;;3.58;1.42;;;-3.10;92.00;;;;;;5004610;28;20049;-78
2023/02/05 02:12:26;;;;;;;4.60;1.50;;;-3.10;91.40;;;;;;4989502;28;20517;-78
2023/02/05 02:14:57;;;;;;;3.10;1.35;;;-3.10;91.40;;;;;;4988638;28;20053;-78
2023/02/05 02:17:25;;;;;;;4.68;1.73;;;-3.10;91.20;;;;;;5004848;28;20076;-77
2023/02/05 02:20:09;;;;;;;4.15;1.70;;;-3.10;91.50;;;;;;5006032;28;20050;-78
2023/02/05 02:22:47;;;;;;;5.40;1.92;;;-3.10;91.30;;;;;;4980768;28;20498;-78
2023/02/05 02:25:32;;;;;;;6.45;2.28;;;-3.00;91.20;;;;;;4988610;28;20057;-74
2023/02/05 02:28:18;;;;;;;8.77;1.85;;;-3.10;91.10;;;;;;4992933;28;20641;-77
2023/02/05 02:31:08;;;;;;;4.93;1.73;;;-3.10;91.40;;;;;;5002456;28;20060;-77
2023/02/05 02:33:55;;;;;;;4.65;2.40;;;-3.10;91.50;;;;;;5010077;28;20057;-77
2023/02/05 02:36:35;;;;;;;2.85;1.50;;;-3.10;91.90;;;;;;4986772;28;20056;-77
2023/02/05 02:39:25;;;;;;;8.45;1.73;;;-3.10;92.60;;;;;;4989345;28;20478;-77
2023/02/05 02:41:54;;;;;;;7.38;1.73;;;-3.20;92.00;;;;;;4986775;28;20045;-77
2023/02/05 02:44:23;;;;;;;8.90;1.70;;;-3.30;91.80;;;;;;4985771;28;20296;-76
2023/02/05 02:46:55;;;;;;;8.38;1.83;;;-3.30;92.00;;;;;;4987066;28;20123;-77
2023/02/05 02:49:32;;;;;;;7.35;1.65;;;-3.40;92.50;;;;;;4986061;28;20046;-77
2023/02/05 02:52:03;;;;;;;3.13;1.70;;;-3.50;92.40;;;;;;4989008;28;20494;-77
2023/02/05 02:54:33;;;;;;;3.00;1.40;;;-3.60;92.80;;;;;;4982759;28;20052;-76
2023/02/05 02:57:03;;;;;;;5.72;1.88;;;-3.60;93.00;;;;;;4986958;28;20426;-75
2023/02/05 02:59:34;;;;;;;3.17;1.73;;;-3.70;93.10;;;;;;4984983;28;20045;-75
2023/02/05 03:02:04;;;;;;;5.05;1.80;;;-3.80;93.10;;;;;;4986445;28;20168;-75
2023/02/05 03:04:37;;;;;;;2.38;1.42;;;-3.90;93.50;;;;;;4986647;28;20060;-75
2023/02/05 03:07:25;;;;;;;5.70;1.90;;;-4.00;94.00;;;;;;5000217;28;20494;-75
2023/02/05 03:10:27;;;;;;;4.72;2.05;;;-4.00;94.50;;;;;;4985404;28;20499;-75
2023/02/05 03:12:54;;;;;;;5.50;1.42;;;-4.10;95.20;;;;;;4980007;28;20050;-75
2023/02/05 03:15:22;;;;;;;1.67;1.17;;;-4.20;95.20;;;;;;5004473;28;20045;-75
2023/02/05 03:17:52;;;;;;;2.13;1.40;;;-4.20;95.00;;;;;;4986636;28;20643;-75
2023/02/05 03:20:29;;;;;;;2.45;1.65;;;-4.20;95.00;;;;;;4985610;28;20049;-75
2023/02/05 03:22:57;;;;;;;2.63;1.77;;;-4.30;95.30;;;;;;4986918;28;20056;-75
2023/02/05 03:25:26;;;;;;;4.10;1.40;;;-4.40;95.70;;;;;;4985739;28;20066;-75
2023/02/05 03:27:54;;;;;;;3.83;1.70;;;-4.40;96.00;;;;;;5004171;28;20460;-75
2023/02/05 03:30:27;;;;;;;4.25;1.52;;;-4.50;95.80;;;;;;5002866;28;20054;-75
2023/02/05 03:33:07;;;;;;;6.57;2.05;;;-4.50;96.20;;;;;;5003018;28;20641;-75
2023/02/05 03:35:46;;;;;;;4.70;1.42;;;-4.60;96.20;;;;;;4981525;28;20544;-75
2023/02/05 03:38:40;;;;;;;5.18;1.98;;;-4.60;96.50;;;;;;4984883;28;20054;-75
2023/02/05 03:41:19;;;;;;;8.65;2.03;;;-4.60;96.60;;;;;;5002084;28;20058;-75
2023/02/05 03:43:52;;;;;;;2.28;1.33;;;-4.70;96.90;;;;;;4983872;28;20041;-75
2023/02/05 03:46:40;;;;;;;3.03;1.10;;;-4.60;97.30;;;;;;5004703;28;20596;-75
2023/02/05 03:49:17;;;;;;;4.63;1.80;;;-4.60;97.70;;;;;;5005582;28;20054;-75
2023/02/05 03:51:59;;;;;;;4.45;1.80;;;-4.60;97.80;;;;;;4984556;28;20060;-75
2023/02/05 03:54:38;;;;;;;9.98;2.45;;;-4.60;97.70;;;;;;4984575;28;20302;-75
2023/02/05 03:57:10;;;;;;;4.80;2.15;;;-4.50;98.00;;;;;;4982041;28;20053;-75
2023/02/05 03:59:37;;;;;;;8.93;1.80;;;-4.50;97.90;;;;;;5007093;28;20064;-75
2023/02/05 04:02:05;;;;;;;9.35;2.30;;;-4.50;98.50;;;;;;4981711;28;20439;-75
2023/02/05 04:04:31;;;;;;;8.23;2.13;;;-4.50;98.40;;;;;;4984427;28;20065;-75
2023/02/05 04:06:58;;;;;;;5.30;2.15;;;-4.50;98.20;;;;;;4987851;28;20046;-75
2023/02/05 04:09:25;;;;;;;5.70;1.85;;;-4.50;98.20;;;;;;4984474;28;20049;-75
2023/02/05 04:11:52;;;;;;;5.07;1.70;;;-4.50;98.10;;;;;;4985199;28;20050;-75
2023/02/05 04:14:19;;;;;;;5.38;1.58;;;-4.40;98.10;;;;;;4984494;28;20132;-75
2023/02/05 04:16:45;;;;;;;4.80;1.80;;;-4.40;98.30;;;;;;5007688;28;20046;-75
2023/02/05 04:19:12;;;;;;;6.93;2.45;;;-4.40;98.30;;;;;;5004234;28;20046;-75
2023/02/05 04:21:39;;;;;;;6.72;2.45;;;-4.30;98.30;;;;;;5004309;28;20045;-75
2023/02/05 04:24:06;;;;;;;3.90;1.88;;;-4.30;98.30;;;;;;4987512;28;20065;-77
2023/02/05 04:26:33;;;;;;;12.95;2.13;;;-4.30;98.10;;;;;;5003729;28;20413;-77
2023/02/05 04:29:00;;;;;;;5.40;2.20;;;-4.30;98.20;;;;;;5003931;28;20562;-77
2023/02/05 04:31:27;;;;;;;5.45;2.42;;;-4.30;98.10;;;;;;5007201;28;20054;-78
2023/02/05 04:33:53;;;;;;;13.98;2.55;;;-4.20;98.30;;;;;;4984399;28;20092;-77
2023/02/05 04:36:20;;;;;;;6.22;1.90;;;-4.20;97.90;;;;;;4985538;28;20542;-77
2023/02/05 04:38:47;;;;;;;3.10;1.67;;;-4.20;97.80;;;;;;4985932;28;20046;-78
2023/02/05 04:41:14;;;;;;;4.22;2.10;;;-4.20;97.70;;;;;;4986549;28;20058;-77
2023/02/05 04:43:40;;;;;;;6.38;1.70;;;-4.20;97.70;;;;;;4991018;28;20080;-77
2023/02/05 04:46:08;;;;;;;4.50;1.98;;;-4.20;97.70;;;;;;4987551;28;20050;-77
2023/02/05 04:48:36;;;;;;;6.85;2.05;;;-4.20;97.70;;;;;;5006328;28;20124;-77
2023/02/05 04:51:08;;;;;;;2.78;1.65;;;-4.20;97.80;;;;;;4984774;28;20073;-77
2023/02/05 04:53:35;;;;;;;3.90;1.98;;;-4.10;97.70;;;;;;4984912;28;20050;-77
2023/02/05 04:56:10;;;;;;;7.63;1.50;;;-4.10;97.70;;;;;;5001752;28;20053;-77
2023/02/05 04:58:37;;;;;;;5.38;2.13;;;-4.10;97.70;;;;;;4977823;28;20049;-77
2023/02/05 05:01:09;;;;;;;5.25;1.70;;;-4.10;97.70;;;;;;5003697;28;20093;-77
2023/02/05 05:03:36;;;;;;;3.78;1.17;;;-4.10;97.50;;;;;;5009538;28;20042;-77
2023/02/05 05:06:04;;;;;;;4.13;1.80;;;-4.10;97.40;;;;;;4987051;28;20053;-77
2023/02/05 05:08:31;;;;;;;6.05;1.90;;;-4.10;97.40;;;;;;5002422;28;20112;-77
2023/02/05 05:10:58;;;;;;;6.55;2.47;;;-4.10;97.30;;;;;;4985168;28;20057;-77
2023/02/05 05:13:25;;;;;;;5.63;1.60;;;-4.10;97.60;;;;;;5003107;28;20057;-77
2023/02/05 05:15:55;;;;;;;4.70;1.80;;;-4.10;97.70;;;;;;5002032;28;20046;-77
2023/02/05 05:18:22;;;;;;;7.63;2.20;;;-4.10;97.80;;;;;;4985843;28;20057;-77
2023/02/05 05:20:49;;;;;;;3.83;1.95;;;-4.10;97.60;;;;;;4989596;28;20045;-77
2023/02/05 05:23:15;;;;;;;5.45;1.80;;;-4.10;97.70;;;;;;4992034;28;20062;-77
2023/02/05 05:25:43;;;;;;;3.40;1.90;;;-4.10;97.50;;;;;;5009739;28;20058;-77
2023/02/05 05:28:11;;;;;;;6.68;1.95;;;-4.10;97.40;;;;;;4993268;28;20402;-77
2023/02/05 05:30:39;;;;;;;8.40;1.65;;;-4.10;97.10;;;;;;4987938;28;20335;-78
2023/02/05 05:33:06;;;;;;;4.25;2.05;;;-4.10;96.70;;;;;;4989361;28;20054;-78
2023/02/05 05:35:33;;;;;;;4.65;2.13;;;-4.00;96.50;;;;;;5005202;28;20073;-78
2023/02/05 05:38:01;;;;;;;5.95;1.92;;;-4.00;96.40;;;;;;4990537;28;20136;-78
2023/02/05 05:46:01;;;;;;;5.88;1.70;;;-3.90;95.60;;;;;;5006086;28;20072;-78
2023/02/05 05:48:29;;;;;;;4.97;1.50;;;-3.90;95.70;;;;;;5001587;28;20509;-79
2023/02/05 05:50:56;;;;;;;3.58;1.45;;;-3.90;95.60;;;;;;5005322;28;20057;-78
2023/02/05 05:53:23;;;;;;;8.57;1.88;;;-3.90;94.90;;;;;;5010649;28;20412;-78
2023/02/05 05:55:50;;;;;;;6.32;1.75;;;-3.90;94.90;;;;;;4986708;28;20436;-78
2023/02/05 05:58:17;;;;;;;4.93;1.70;;;-3.80;95.00;;;;;;5004915;28;20518;-78
2023/02/05 06:00:43;;;;;;;5.97;1.80;;;-3.80;94.90;;;;;;4989230;28;20124;-78
2023/02/05 06:03:11;;;;;;;9.82;1.73;;;-3.70;94.70;;;;;;5013327;28;20057;-78
2023/02/05 06:05:38;;;;;;;5.47;2.13;;;-3.70;94.60;;;;;;5004744;28;20200;-78
2023/02/05 06:08:05;;;;;;;5.90;1.67;;;-3.70;94.50;;;;;;4987991;28;20056;-78
2023/02/05 06:10:32;;;;;;;5.03;2.03;;;-3.70;94.30;;;;;;5008442;28;20053;-78
2023/02/05 06:12:59;;;;;;;3.95;1.48;;;-3.70;93.50;;;;;;4988516;28;20058;-78
2023/02/05 06:15:26;;;;;;;6.18;2.25;;;-3.60;93.00;;;;;;5005297;28;20107;-78
2023/02/05 06:17:53;;;;;;;3.83;1.38;;;-3.60;92.60;;;;;;4987865;28;20271;-78
2023/02/05 06:20:20;;;;;;;5.45;1.67;;;-3.50;92.30;;;;;;5004554;28;20075;-78
2023/02/05 06:22:47;;;;;;;3.45;1.65;;;-3.50;92.20;;;;;;5012158;28;20045;-78
2023/02/05 06:25:14;;;;;;;4.28;1.75;;;-3.50;92.40;;;;;;4988273;28;20058;-78
2023/02/05 06:27:41;;;;;;;4.38;1.85;;;-3.40;92.20;;;;;;5005406;28;20057;-78
2023/02/05 06:30:08;;;;;;;4.07;1.75;;;-3.40;91.90;;;;;;4988081;28;20053;-78
2023/02/05 06:32:35;;;;;;;9.85;2.65;;;-3.40;91.90;;;;;;4987406;28;20410;-78
2023/02/05 06:35:03;;;;;;;8.38;1.85;;;-3.30;91.70;;;;;;5004299;28;20491;-78
2023/02/05 06:37:30;;;;;;;6.13;1.77;;;-3.30;91.70;;;;;;4999920;28;20475;-78
2023/02/05 06:40:14;;;;;;;2.50;1.52;;;-3.30;91.80;;;;;;4991102;28;20127;-78
2023/02/05 06:42:41;;;;;;;5.03;1.42;;;-3.30;91.20;;;;;;5005865;28;20042;-78
2023/02/05 06:45:09;;;;;;;9.75;2.08;;;-3.20;91.60;;;;;;4989915;28;20050;-77
2023/02/05 06:47:37;;;;;;;5.10;2.08;;;-3.20;91.80;;;;;;4987145;28;20490;-78
2023/02/05 06:50:05;;;;;;;4.50;1.73;;;-3.20;91.10;;;;;;4989490;28;20502;-78
2023/02/05 06:52:32;;;;;;;3.72;1.40;;;-3.10;90.60;;;;;;4988146;28;20061;-78
2023/02/05 06:54:59;;;;;;;4.05;1.48;;;-3.10;90.40;;;;;;4990775;28;20050;-78
2023/02/05 06:57:26;;;;;;;8.63;1.80;;;-3.10;90.00;;;;;;4987585;28;20396;-78
2023/02/05 06:59:53;;;;;;;5.25;1.48;;;-3.00;89.80;;;;;;4989305;28;20054;-78
2023/02/05 07:02:20;;;;;;;3.92;1.75;;;-3.00;88.90;;;;;;5011141;28;20060;-78
2023/02/05 07:04:47;;;;;;;5.95;1.67;;;-3.00;88.80;;;;;;5001881;28;20088;-78
2023/02/05 07:07:15;;;;;;;10.55;1.88;;;-2.90;88.20;;;;;;4997743;28;20065;-76
2023/02/05 07:09:43;;;;;;;6.97;1.35;;;-2.90;88.60;;;;;;4993322;28;20084;-77
2023/02/05 07:12:09;;;;;;;2.58;1.10;;;-2.90;88.50;;;;;;5017536;28;20049;-77
2023/02/05 07:14:40;;;;;;;4.10;1.75;;;-2.80;88.80;;;;;;5001032;28;20061;-77
2023/02/05 07:17:07;;;;;;;5.13;1.60;;;-2.80;88.80;;;;;;5027069;28;20652;-78
2023/02/05 07:19:36;;;;;;;3.15;1.65;;;-2.80;89.10;;;;;;5004404;28;20061;-78
2023/02/05 07:22:04;;;;;;;8.93;1.85;;;-2.80;88.50;;;;;;5024475;28;20053;-78
2023/02/05 07:24:31;;;;;;;3.42;1.40;;;-2.70;87.90;;;;;;5014983;28;20680;-78
2023/02/05 07:26:58;;;;;;;3.28;1.65;;;-2.70;88.30;;;;;;4993835;28;20144;-78
2023/02/05 07:29:26;;;;;;;4.53;1.50;;;-2.60;88.40;;;;;;5022108;28;20056;-77
2023/02/05 07:31:52;;;;;;;3.05;1.30;;;-2.60;87.80;;;;;;5016411;28;20506;-75
2023/02/05 07:34:19;;;;;;;6.68;1.70;;;-2.50;87.10;;;;;;4992794;28;20117;-76
2023/02/05 07:36:52;;;;;;;9.48;1.48;;;-2.50;87.10;;;;;;5006975;28;20049;-76
2023/02/05 07:39:19;;;;;;;2.72;1.30;;;-2.40;87.10;;;;;;4991880;28;20523;-76
2023/02/05 07:41:46;;;;;;;3.50;1.13;;;-2.40;86.80;;;;;;5005599;28;20050;-75
2023/02/05 07:44:13;;;;;;;4.03;1.50;;;-2.30;86.10;;;;;;4989871;28;20058;-76
2023/02/05 07:46:40;;;;;;;12.13;1.35;;;-2.30;85.40;;;;;;4989406;28;20060;-76
2023/02/05 07:49:06;;;;;;;6.50;1.20;;;-2.20;84.50;;;;;;4992055;28;20540;-76
2023/02/05 07:51:33;;;;;;;2.63;1.23;;;-2.10;84.20;;;;;;4984926;28;20061;-75
2023/02/05 07:54:08;;;;;;;9.38;1.50;;;-2.10;84.30;;;;;;4988559;28;20077;-76
2023/02/05 07:56:35;;;;;;;4.15;1.42;;;-2.00;83.90;;;;;;4999465;28;20234;-76
2023/02/05 07:59:02;;;;;;;5.20;1.30;;;-2.00;82.70;;;;;;5012265;28;20860;-75
2023/02/05 08:01:29;;;;;;;3.00;1.23;;;-1.90;82.80;;;;;;4988531;28;20045;-76
2023/02/05 08:03:56;;;;;;;6.72;1.60;;;-1.90;82.90;;;;;;5005573;28;20058;-76
2023/02/05 08:06:23;;;;;;;9.90;1.63;;;-1.80;82.40;;;;;;5005693;28;20191;-76
2023/02/05 08:08:50;;;;;;;1.50;0.90;;;-1.80;83.40;;;;;;4984832;28;20061;-76
2023/02/05 08:11:18;;;;;;;1.83;0.93;;;-1.70;82.50;;;;;;4992788;28;20487;-76
2023/02/05 08:13:45;;;;;;;3.30;1.23;;;-1.60;82.30;;;;;;4989792;28;20093;-76
2023/02/05 08:16:16;;;;;;;4.40;1.45;;;-1.60;81.80;;;;;;4994323;28;20066;-76
2023/02/05 08:18:48;;;;;;;8.60;1.10;;;-1.50;81.00;;;;;;4988363;28;20144;-76
2023/02/05 08:21:15;;;;;;;3.83;0.73;;;-1.50;79.30;;;;;;4986346;28;20502;-76
2023/02/05 08:23:42;;;;;;;5.63;1.02;;;-1.40;80.30;;;;;;4986960;28;20088;-76
2023/02/05 08:26:10;;;;;;;9.38;1.27;;;-1.40;79.80;;;;;;5004519;28;20057;-76
2023/02/05 08:28:36;;;;;;;12.43;1.35;;;-1.30;79.10;;;;;;4987743;28;20050;-75
2023/02/05 08:31:12;;;;;;;8.70;1.17;;;-1.30;78.70;;;;;;5002952;28;20080;-77
2023/02/05 08:33:39;;;;;;;7.68;1.20;;;-1.20;78.50;;;;;;4994464;28;20082;-77
2023/02/05 08:36:06;;;;;;;3.95;1.23;;;-1.10;78.90;;;;;;4985196;28;20076;-78
2023/02/05 08:38:33;;;;;;;6.72;1.17;;;-1.00;77.90;;;;;;5011532;28;20136;-78
2023/02/05 08:41:11;;;;;;;5.03;0.95;;;-1.00;77.70;;;;;;5004805;28;20056;-78
2023/02/05 08:43:47;;;;;;;4.18;1.00;;;-0.90;77.00;;;;;;4993107;28;20772;-78
2023/02/05 08:46:18;;;;;;;6.15;1.35;;;-0.80;76.10;;;;;;5001218;28;20069;-78
2023/02/05 08:48:46;;;;;;;4.22;1.15;;;-0.80;75.40;;;;;;5001324;28;20053;-78
2023/02/05 08:51:14;;;;;;;2.63;1.08;;;-0.80;75.50;;;;;;5023278;28;20057;-79
2023/02/05 08:53:41;;;;;;;5.72;1.05;;;-0.70;74.80;;;;;;5013120;28;20049;-78
2023/02/05 08:56:09;;;;;;;6.53;0.90;;;-0.70;75.00;;;;;;5025506;28;20057;-79
2023/02/05 08:58:37;;;;;;;5.97;1.05;;;-0.70;73.30;;;;;;5002035;28;20724;-78
2023/02/05 09:01:11;;;;;;;3.72;1.13;;;-0.60;74.10;;;;;;5026610;28;20045;-78
2023/02/05 09:03:38;;;;;;;4.70;1.20;;;-0.60;73.70;;;;;;5026255;28;20057;-78
2023/02/05 09:06:07;;;;;;;2.97;0.88;;;-0.50;73.80;;;;;;5012753;28;20073;-78
2023/02/05 09:08:35;;;;;;;4.40;1.00;;;-0.40;73.80;;;;;;4996532;28;20057;-78
2023/02/05 09:11:02;;;;;;;4.65;0.98;;;-0.40;73.10;;;;;;4986187;28;20060;-78
2023/02/05 09:13:29;;;;;;;5.93;1.08;;;-0.40;72.60;;;;;;5013564;28;20604;-78
2023/02/05 09:15:56;;;;;;;5.65;0.60;;;-0.30;71.60;;;;;;4994856;28;20488;-78
2023/02/05 09:18:23;;;;;;;2.47;1.13;;;-0.20;71.70;;;;;;5008291;28;20049;-78
2023/02/05 09:20:50;;;;;;;15.68;1.20;;;-0.10;71.80;;;;;;5008853;28;20052;-77
2023/02/05 09:23:18;;;;;;;3.55;0.70;;;-0.10;70.40;;;;;;5001950;28;20054;-78
2023/02/05 09:25:45;;;;;;;4.47;1.08;;;0.00;70.60;;;;;;5012367;28;20054;-78
2023/02/05 09:28:13;;;;;;;6.85;0.93;;;0.00;70.30;;;;;;5012198;28;20053;-78
2023/02/05 09:30:43;;;;;;;1.00;0.77;;;0.10;69.60;;;;;;4993721;28;20050;-78
2023/02/05 09:33:12;;;;;;;0.82;0.60;;;0.10;69.00;;;;;;5013402;28;20564;-78
2023/02/05 09:35:39;;;;;;;1.83;0.70;;;0.20;68.40;;;;;;4997177;28;20447;-78
2023/02/05 09:38:06;;;;;;;7.05;1.00;;;0.40;68.60;;;;;;4996877;28;20057;-78
2023/02/05 09:41:09;;;;;;;4.00;0.65;;;0.40;66.70;;;;;;4994517;28;20054;-78
2023/02/05 09:43:51;;;;;;;21.75;1.33;;;0.50;67.20;;;;;;5010750;28;20482;-78
2023/02/05 09:46:27;;;;;;;5.25;1.17;;;0.50;66.80;;;;;;5001165;28;20058;-78
2023/02/05 09:49:04;;;;;;;4.57;1.10;;;0.60;67.50;;;;;;5012681;28;20433;-78
2023/02/05 09:51:33;;;;;;;2.50;1.00;;;0.70;65.60;;;;;;5001023;28;20054;-78
2023/02/05 09:54:13;;;;;;;3.03;0.77;;;0.70;65.70;;;;;;4997322;28;20046;-78
2023/02/05 09:56:43;;;;;;;9.85;0.77;;;0.70;66.40;;;;;;5017835;28;20069;-78
2023/02/05 09:59:15;;;;;;;5.85;1.00;;;0.70;65.60;;;;;;5012925;28;20056;-78
2023/02/05 10:02:00;;;;;;;9.15;0.73;;;0.70;64.40;;;;;;4998922;28;20141;-78
2023/02/05 10:04:27;;;;;;;3.33;1.33;;;0.60;64.30;;;;;;4999553;28;20063;-79
2023/02/05 10:07:06;;;;;;;7.47;0.93;;;0.70;65.50;;;;;;5000406;28;20056;-79
2023/02/05 10:09:48;;;;;;;7.13;1.35;;;0.80;65.00;;;;;;4995695;28;20054;-78
2023/02/05 10:12:52;;;;;;;2.55;0.95;;;0.90;63.80;;;;;;4992488;28;20062;-79
2023/02/05 10:15:28;;;;;;;4.70;0.70;;;0.90;63.90;;;;;;4984124;28;20089;-78
2023/02/05 10:18:20;;;;;;;3.10;1.15;;;1.00;64.60;;;;;;4993250;28;20049;-78
2023/02/05 10:21:19;;;;;;;1.48;0.80;;;1.10;62.10;;;;;;5016802;28;20501;-78
2023/02/05 10:24:19;;;;;;;11.32;1.48;;;1.00;61.70;;;;;;5013250;28;20053;-78
2023/02/05 10:26:51;;;;;;;2.75;1.00;;;1.10;65.10;;;;;;5020901;28;20054;-79
2023/02/05 10:29:32;;;;;;;6.32;1.08;;;1.30;63.10;;;;;;5011941;28;20093;-79
2023/02/05 10:32:17;;;;;;;6.15;1.45;;;1.30;60.30;;;;;;5005173;28;20355;-79
2023/02/05 10:35:02;;;;;;;12.65;1.60;;;1.30;61.00;;;;;;4993943;28;20544;-79
2023/02/05 10:37:47;;;;;;;4.30;1.50;;;1.30;59.40;;;;;;4996055;28;20041;-79
2023/02/05 10:40:18;;;;;;;6.43;1.55;;;1.40;58.70;;;;;;4994884;28;20129;-79
2023/02/05 10:43:17;;;;;;;4.85;1.80;;;1.30;58.50;;;;;;4993156;28;20116;-79
2023/02/05 10:45:44;;;;;;;5.43;1.25;;;1.50;58.50;;;;;;5009958;28;20042;-79
2023/02/05 10:48:53;;;;;;;17.05;2.10;;;1.50;59.70;;;;;;5013074;28;20057;-79
2023/02/05 10:51:31;;;;;;;2.53;1.20;;;1.70;61.50;;;;;;4990526;28;20399;-79
2023/02/05 10:53:59;;;;;;;3.45;1.35;;;2.00;61.80;;;;;;4994130;28;20053;-79
2023/02/05 10:56:26;;;;;;;2.33;1.10;;;2.10;58.30;;;;;;5011449;28;20050;-79
2023/02/05 10:59:00;;;;;;;3.42;1.38;;;2.30;58.70;;;;;;5004982;28;20768;-79
2023/02/05 11:01:35;;;;;;;6.82;1.50;;;2.50;57.70;;;;;;5013498;28;20042;-79
2023/02/05 11:04:06;;;;;;;4.35;1.13;;;2.70;58.10;;;;;;4999067;28;20118;-79
2023/02/05 11:06:39;;;;;;;2.30;1.20;;;2.60;57.90;;;;;;4988844;28;20050;-78
2023/02/05 11:09:24;;;;;;;10.02;1.83;;;2.60;56.70;;;;;;4987152;28;20050;-79
2023/02/05 11:11:53;;;;;;;4.68;1.77;;;2.70;58.40;;;;;;5003482;28;20148;-78
2023/02/05 11:14:35;;;;;;;6.18;1.70;;;2.80;58.50;;;;;;4996459;28;20133;-78
2023/02/05 11:17:23;;;;;;;1.80;1.45;;;3.00;56.30;;;;;;4997944;28;20054;-79
2023/02/05 11:19:59;;;;;;;5.78;1.77;;;3.00;57.20;;;;;;4990936;28;20096;-79
2023/02/05 11:22:35;;;;;;;5.15;1.40;;;3.10;56.20;;;;;;4990770;28;20048;-79
2023/02/05 11:25:15;;;;;;;2.78;1.50;;;3.10;59.50;;;;;;5004031;28;20057;-79
2023/02/05 11:27:59;;;;;;;7.72;2.08;;;3.30;56.70;;;;;;4990179;28;20061;-78
2023/02/05 11:30:31;;;;;;;2.40;1.15;;;3.20;53.50;;;;;;4998046;28;20049;-78
2023/02/05 11:33:21;;;;;;;2.22;1.38;;;3.20;55.20;;;;;;5016608;28;20226;-79
2023/02/05 11:36:17;;;;;;;4.45;1.27;;;3.40;54.60;;;;;;4994106;28;20054;-78
2023/02/05 11:38:46;;;;;;;2.97;1.30;;;3.40;53.60;;;;;;4996287;28;20053;-79
2023/02/05 11:41:46;;;;;;;2.45;1.23;;;3.50;53.50;;;;;;5002380;28;20054;-79
2023/02/05 11:44:26;;;;;;;6.68;1.58;;;3.50;55.00;;;;;;5013031;28;20050;-79
2023/02/05 11:46:59;;;;;;;10.43;2.13;;;3.40;55.90;;;;;;5005568;28;20554;-79
2023/02/05 11:49:33;;;;;;;2.28;1.20;;;3.50;53.60;;;;;;4988150;28;20490;-79
2023/02/05 11:52:08;;;;;;;3.70;1.70;;;3.70;53.70;;;;;;4986603;28;20049;-79
2023/02/05 11:54:36;;;;;;;5.50;1.50;;;3.80;53.20;;;;;;5001847;28;20049;-79
2023/02/05 11:57:21;;;;;;;4.50;1.50;;;3.80;53.10;;;;;;4982757;28;20049;-79
2023/02/05 11:59:55;;;;;;;2.83;1.20;;;3.90;53.90;;;;;;4980050;28;20085;-79
2023/02/05 12:02:25;;;;;;;4.55;1.60;;;3.90;54.00;;;;;;4985729;28;20054;-79
2023/02/05 12:05:01;;;;;;;2.65;1.55;;;3.80;54.50;;;;;;4985602;28;20045;-79
2023/02/05 12:07:34;;;;;;;3.15;1.42;;;3.70;54.50;;;;;;4983343;28;20333;-79
2023/02/05 12:10:01;;;;;;;10.57;1.92;;;3.70;53.20;;;;;;4985519;28;20060;-77
2023/02/05 12:12:42;;;;;;;4.43;1.40;;;3.60;53.10;;;;;;5001679;28;20089;-77
2023/02/05 12:15:26;;;;;;;4.20;1.65;;;3.80;54.70;;;;;;4985380;28;20049;-77
2023/02/05 12:18:01;;;;;;;3.00;1.20;;;3.80;51.70;;;;;;4984350;28;20487;-77
2023/02/05 12:20:46;;;;;;;10.05;2.00;;;3.80;51.30;;;;;;4985010;28;20446;-77
2023/02/05 12:23:18;;;;;;;3.78;1.60;;;3.80;54.00;;;;;;4983916;28;20068;-77
2023/02/05 12:25:48;;;;;;;6.57;1.85;;;3.60;52.10;;;;;;4983097;28;20557;-77
2023/02/05 12:28:18;;;;;;;2.70;1.33;;;3.50;52.30;;;;;;4985076;28;20465;-77
2023/02/05 12:30:50;;;;;;;5.38;1.60;;;3.60;51.90;;;;;;5002171;28;20054;-77
2023/02/05 12:33:38;;;;;;;3.10;1.40;;;3.50;53.30;;;;;;5002804;28;20096;-77
2023/02/05 12:36:25;;;;;;;6.13;1.33;;;3.60;54.80;;;;;;4984910;28;20061;-77
2023/02/05 12:39:20;;;;;;;4.72;1.75;;;3.50;53.70;;;;;;4954054;28;20064;-77
2023/02/05 12:42:15;;;;;;;3.05;1.58;;;3.30;53.40;;;;;;4985494;28;20053;-77
2023/02/05 12:44:51;;;;;;;4.07;1.55;;;3.20;55.00;;;;;;4999443;28;20584;-75
2023/02/05 12:47:27;;;;;;;8.50;1.88;;;3.20;54.40;;;;;;5002988;28;20549;-75
2023/02/05 12:50:13;;;;;;;10.73;1.52;;;3.10;55.60;;;;;;5001969;28;20049;-75
2023/02/05 12:53:02;;;;;;;3.70;1.50;;;3.00;55.50;;;;;;4982543;28;20057;-77
2023/02/05 12:55:35;;;;;;;9.35;1.80;;;3.10;55.60;;;;;;4980491;28;20506;-76
2023/02/05 12:58:05;;;;;;;4.60;1.23;;;3.00;55.30;;;;;;4985898;28;20116;-75
2023/02/05 13:00:40;;;;;;;3.60;1.40;;;2.90;53.40;;;;;;4981463;28;20578;-75
2023/02/05 13:03:28;;;;;;;4.13;1.57;;;2.80;54.30;;;;;;5000230;28;20134;-76
2023/02/05 13:06:00;;;;;;;4.78;1.65;;;2.80;55.50;;;;;;4983823;28;20375;-75
2023/02/05 13:08:41;;;;;;;4.38;1.40;;;2.80;54.30;;;;;;4985008;28;20153;-75
2023/02/05 13:11:28;;;;;;;7.28;1.60;;;3.10;54.80;;;;;;4988121;28;20049;-76
2023/02/05 13:14:18;;;;;;;1.45;1.00;;;3.00;56.00;;;;;;5002111;28;20119;-76
2023/02/05 13:16:58;;;;;;;3.63;1.60;;;3.10;55.30;;;;;;4985481;28;20072;-76
2023/02/05 13:19:48;;;;;;;6.10;1.40;;;3.20;56.20;;;;;;4983932;28;20042;-76
2023/02/05 13:28:48;;;;;;;2.58;1.30;;;4.40;55.60;;;;;;5001290;28;20058;-76